createdAt,value
2019-01-23T00:01:23.300Z,7.62
2019-01-23T00:04:00.133Z,6.47
2019-01-23T00:06:36.893Z,6.00
2019-01-23T00:09:13.475Z,4.95
2019-01-23T00:11:49.761Z,6.92
2019-01-23T00:14:25.952Z,7.22
2019-01-23T00:17:02.561Z,5.78
2019-01-23T00:19:39.665Z,7.30
2019-01-23T00:22:15.557Z,8.53
2019-01-23T00:24:52.597Z,5.97
2019-01-23T00:27:28.404Z,7.50
2019-01-23T00:30:07.373Z,7.15
2019-01-23T00:32:44.129Z,5.58
2019-01-23T00:35:20.342Z,7.10
2019-01-23T00:37:57.257Z,6.37
2019-01-23T00:40:34.165Z,4.50
2019-01-23T00:43:11.032Z,6.62
2019-01-23T00:45:47.631Z,6.05
2019-01-23T00:48:23.748Z,5.97
2019-01-23T00:51:00.194Z,5.97
2019-01-23T00:53:36.509Z,7.22
2019-01-23T00:56:12.766Z,6.53
2019-01-23T00:58:49.236Z,5.00
2019-01-23T01:01:26.553Z,4.53
2019-01-23T01:04:02.974Z,6.22
2019-01-23T01:06:39.203Z,5.78
2019-01-23T01:09:15.304Z,6.35
2019-01-23T01:11:52.020Z,5.20
2019-01-23T01:14:28.459Z,8.35
2019-01-23T01:17:05.144Z,6.45
2019-01-23T01:19:41.025Z,5.08
2019-01-23T01:22:17.985Z,6.03
2019-01-23T01:24:53.796Z,5.85
2019-01-23T01:27:30.236Z,11.15
2019-01-23T01:30:10.629Z,6.65
2019-01-23T01:32:47.033Z,7.40
2019-01-23T01:35:23.004Z,6.97
2019-01-23T01:38:00.360Z,5.12
2019-01-23T01:40:36.516Z,5.33
2019-01-23T01:43:12.872Z,5.28
2019-01-23T01:45:48.615Z,5.67
2019-01-23T01:48:24.839Z,5.62
2019-01-23T01:51:01.344Z,4.85
2019-01-23T01:53:38.101Z,4.92
2019-01-23T01:56:14.951Z,6.20
2019-01-23T01:58:51.136Z,5.15
2019-01-23T02:01:27.189Z,5.25
2019-01-23T02:04:03.529Z,6.80
2019-01-23T02:06:39.881Z,4.80
2019-01-23T02:09:16.501Z,4.95
2019-01-23T02:11:52.901Z,5.53
2019-01-23T02:14:29.250Z,5.35
2019-01-23T02:17:05.106Z,6.33
2019-01-23T02:19:42.011Z,5.20
2019-01-23T02:22:19.053Z,5.77
2019-01-23T02:24:55.872Z,5.47
2019-01-23T02:27:31.708Z,5.07
2019-01-23T02:30:10.566Z,5.60
2019-01-23T02:32:46.480Z,5.95
2019-01-23T02:35:23.961Z,5.53
2019-01-23T02:38:00.231Z,5.95
2019-01-23T02:40:36.748Z,5.35
2019-01-23T02:43:12.964Z,9.13
2019-01-23T02:45:49.157Z,4.85
2019-01-23T02:48:25.676Z,6.07
2019-01-23T02:51:02.400Z,4.90
2019-01-23T02:53:39.271Z,5.42
2019-01-23T02:56:16.066Z,4.92
2019-01-23T02:58:52.392Z,5.17
2019-01-23T03:01:28.164Z,5.47
2019-01-23T03:04:03.945Z,4.53
2019-01-23T03:06:40.361Z,5.05
2019-01-23T03:09:16.827Z,4.90
2019-01-23T03:11:53.424Z,5.27
2019-01-23T03:14:29.664Z,5.35
2019-01-23T03:17:07.288Z,5.00
2019-01-23T03:19:44.016Z,4.23
2019-01-23T03:22:20.881Z,4.80
2019-01-23T03:24:57.068Z,5.60
2019-01-23T03:27:33.564Z,5.75
2019-01-23T03:30:12.981Z,6.57
2019-01-23T03:32:50.154Z,12.43
2019-01-23T03:35:25.810Z,9.43
2019-01-23T03:38:03.097Z,8.90
2019-01-23T03:40:39.877Z,10.13
2019-01-23T03:43:16.880Z,8.75
2019-01-23T03:45:53.114Z,9.28
2019-01-23T03:48:29.539Z,11.73
2019-01-23T03:51:05.627Z,20.90
2019-01-23T03:53:42.503Z,10.70
2019-01-23T03:56:18.480Z,9.58
2019-01-23T03:58:55.225Z,10.13
2019-01-23T04:01:30.829Z,12.23
2019-01-23T04:04:07.399Z,13.08
2019-01-23T04:06:43.781Z,11.57
2019-01-23T04:09:19.666Z,8.15
2019-01-23T04:11:55.651Z,7.75
2019-01-23T04:14:32.069Z,10.55
2019-01-23T04:17:07.868Z,13.68
2019-01-23T04:19:44.636Z,10.10
2019-01-23T04:22:20.985Z,15.60
2019-01-23T04:24:57.144Z,7.35
2019-01-23T04:27:33.648Z,6.00
2019-01-23T04:30:13.627Z,9.67
2019-01-23T04:32:50.470Z,8.90
2019-01-23T04:35:27.272Z,8.78
2019-01-23T04:38:03.930Z,8.80
2019-01-23T04:40:40.452Z,14.87
2019-01-23T04:43:16.739Z,6.58
2019-01-23T04:45:53.691Z,14.15
2019-01-23T04:48:29.893Z,11.12
2019-01-23T04:51:41.114Z,10.15
2019-01-23T04:54:19.413Z,11.60
2019-01-23T04:56:56.448Z,14.05
2019-01-23T04:59:32.226Z,8.95
2019-01-23T05:02:09.328Z,10.15
2019-01-23T05:04:45.397Z,11.20
2019-01-23T05:07:22.071Z,13.80
2019-01-23T05:09:58.305Z,8.97
2019-01-23T05:12:34.627Z,9.85
2019-01-23T05:15:10.885Z,7.70
2019-01-23T05:17:46.608Z,11.40
2019-01-23T05:20:22.286Z,10.90
2019-01-23T05:22:58.635Z,10.27
2019-01-23T05:25:35.029Z,10.75
2019-01-23T05:28:11.667Z,17.37
2019-01-23T05:30:48.408Z,9.37
2019-01-23T05:33:25.626Z,8.50
2019-01-23T05:36:02.193Z,10.28
2019-01-23T05:38:38.399Z,9.28
2019-01-23T05:41:14.504Z,7.28
2019-01-23T05:43:50.277Z,9.55
2019-01-23T05:46:26.097Z,6.20
2019-01-23T05:49:03.112Z,13.10
2019-01-23T05:51:39.252Z,9.95
2019-01-23T05:54:16.315Z,12.93
2019-01-23T05:56:52.603Z,10.65
2019-01-23T05:59:28.669Z,8.53
2019-01-23T06:02:04.943Z,11.43
2019-01-23T06:04:41.129Z,8.75
2019-01-23T06:07:17.031Z,11.85
2019-01-23T06:09:53.817Z,9.65
2019-01-23T06:12:29.562Z,9.33
2019-01-23T06:15:06.492Z,7.57
2019-01-23T06:17:42.298Z,7.22
2019-01-23T06:20:19.174Z,17.20
2019-01-23T06:22:55.343Z,12.40
2019-01-23T06:25:32.837Z,9.10
2019-01-23T06:28:09.599Z,10.57
2019-01-23T06:30:46.366Z,14.07
2019-01-23T06:33:23.257Z,9.53
2019-01-23T06:35:59.696Z,9.53
2019-01-23T06:38:36.497Z,10.72
2019-01-23T06:41:13.468Z,10.25
2019-01-23T06:43:49.861Z,9.00
2019-01-23T06:46:26.737Z,6.08
2019-01-23T06:49:03.705Z,8.30
2019-01-23T06:51:40.040Z,8.33
2019-01-23T06:54:16.323Z,6.90
2019-01-23T06:56:52.654Z,9.88
2019-01-23T06:59:29.080Z,7.50
2019-01-23T07:02:06.114Z,10.30
2019-01-23T07:04:42.425Z,8.00
2019-01-23T07:07:19.326Z,6.17
2019-01-23T07:09:55.721Z,9.13
2019-01-23T07:12:31.522Z,25.08
2019-01-23T07:15:08.345Z,26.00
2019-01-23T07:17:44.649Z,28.10
2019-01-23T07:20:22.460Z,22.63
2019-01-23T07:22:59.088Z,21.73
2019-01-23T07:25:35.805Z,21.23
2019-01-23T07:28:12.284Z,22.20
2019-01-23T07:30:49.124Z,18.07
2019-01-23T07:33:25.282Z,17.17
2019-01-23T07:36:01.276Z,16.40
2019-01-23T07:38:37.818Z,14.77
2019-01-23T07:41:14.513Z,17.30
2019-01-23T07:43:50.890Z,13.37
2019-01-23T07:46:27.630Z,12.63
2019-01-23T07:49:04.564Z,16.70
2019-01-23T07:51:41.296Z,13.23
2019-01-23T07:54:17.676Z,9.43
2019-01-23T07:56:53.533Z,11.40
2019-01-23T07:59:29.888Z,9.88
2019-01-23T08:02:06.172Z,9.40
2019-01-23T08:04:41.849Z,9.48
2019-01-23T08:07:18.073Z,15.25
2019-01-23T08:09:53.916Z,9.83
2019-01-23T08:12:30.001Z,9.63
2019-01-23T08:15:10.662Z,10.63
2019-01-23T08:17:47.371Z,10.13
2019-01-23T08:20:24.347Z,11.33
2019-01-23T08:23:00.651Z,7.42
2019-01-23T08:25:36.874Z,8.40
2019-01-23T08:28:13.039Z,9.85
2019-01-23T08:30:49.889Z,8.48
2019-01-23T08:33:26.337Z,12.47
2019-01-23T08:36:03.242Z,11.18
2019-01-23T08:38:40.185Z,9.45
2019-01-23T08:41:17.101Z,7.10
2019-01-23T08:43:53.746Z,10.20
2019-01-23T08:46:30.442Z,9.93
2019-01-23T08:49:06.472Z,10.05
2019-01-23T08:51:42.510Z,8.90
2019-01-23T08:54:39.053Z,8.45
2019-01-23T08:57:15.315Z,8.40
2019-01-23T08:59:51.714Z,9.43
2019-01-23T09:02:29.437Z,9.38
2019-01-23T09:05:06.085Z,11.05
2019-01-23T09:07:42.366Z,9.25
2019-01-23T09:10:20.411Z,10.35
2019-01-23T09:12:57.796Z,9.75
2019-01-23T09:15:33.757Z,8.23
2019-01-23T09:18:10.160Z,7.87
2019-01-23T09:20:46.661Z,8.60
2019-01-23T09:23:23.092Z,9.00
2019-01-23T09:25:59.072Z,9.25
2019-01-23T09:28:35.281Z,7.80
2019-01-23T09:32:06.890Z,8.50
2019-01-23T09:35:05.445Z,7.50
2019-01-23T09:38:12.559Z,6.67
2019-01-23T09:41:10.100Z,6.97
2019-01-23T09:44:21.752Z,6.62
2019-01-23T09:47:22.216Z,6.85
2019-01-23T09:50:23.474Z,8.30
2019-01-23T09:53:23.511Z,7.45
2019-01-23T09:55:59.829Z,8.05
2019-01-23T09:58:35.925Z,10.18
2019-01-23T10:01:12.148Z,9.43
2019-01-23T10:03:48.757Z,7.70
2019-01-23T10:06:25.280Z,7.37
2019-01-23T10:09:01.531Z,7.77
2019-01-23T10:11:37.352Z,8.63
2019-01-23T10:14:14.119Z,8.08
2019-01-23T10:16:50.027Z,7.20
2019-01-23T10:19:27.068Z,11.00
2019-01-23T10:22:03.340Z,10.98
2019-01-23T10:24:39.845Z,8.88
2019-01-23T10:27:16.823Z,8.80
2019-01-23T10:29:53.353Z,11.15
2019-01-23T10:32:30.241Z,11.68
2019-01-23T10:35:08.735Z,11.50
2019-01-23T10:37:46.043Z,11.48
2019-01-23T10:40:22.822Z,11.10
2019-01-23T10:42:58.873Z,15.45
2019-01-23T10:45:35.945Z,15.05
2019-01-23T10:48:12.680Z,13.75
2019-01-23T10:50:48.974Z,14.73
2019-01-23T10:53:25.012Z,11.38
2019-01-23T10:56:01.358Z,10.80
2019-01-23T10:58:37.569Z,12.85
2019-01-23T11:01:13.986Z,11.85
2019-01-23T11:03:49.667Z,12.10
2019-01-23T11:06:26.491Z,15.23
2019-01-23T11:09:05.608Z,17.25
2019-01-23T11:11:41.612Z,15.35
2019-01-23T11:14:17.477Z,12.98
2019-01-23T11:16:53.397Z,14.18
2019-01-23T11:19:29.612Z,12.23
2019-01-23T11:22:05.897Z,14.93
2019-01-23T11:24:42.481Z,13.15
2019-01-23T11:27:19.241Z,11.78
2019-01-23T11:29:56.521Z,11.53
2019-01-23T11:32:33.046Z,13.48
2019-01-23T11:35:09.152Z,13.65
2019-01-23T11:37:45.829Z,12.20
2019-01-23T11:40:25.751Z,13.43
2019-01-23T11:43:02.392Z,13.77
2019-01-23T11:45:38.607Z,13.00
2019-01-23T11:48:14.612Z,13.08
2019-01-23T11:50:51.644Z,14.30
2019-01-23T11:53:27.948Z,12.68
2019-01-23T11:56:04.603Z,11.65
2019-01-23T11:58:40.967Z,11.40
2019-01-23T12:01:16.865Z,11.30
2019-01-23T12:03:53.874Z,10.13
2019-01-23T12:06:37.127Z,11.40
2019-01-23T12:09:16.174Z,9.40
2019-01-23T12:11:55.140Z,12.03
2019-01-23T12:14:34.610Z,16.20
2019-01-23T12:17:13.098Z,11.75
2019-01-23T12:19:50.772Z,9.83
2019-01-23T12:22:30.225Z,13.20
2019-01-23T12:25:08.320Z,12.60
2019-01-23T12:27:44.673Z,12.37
2019-01-23T12:30:23.303Z,8.87
2019-01-23T12:33:00.027Z,9.80
2019-01-23T12:35:36.256Z,10.25
2019-01-23T12:38:12.347Z,10.82
2019-01-23T12:40:48.434Z,10.40
2019-01-23T12:43:25.311Z,9.60
2019-01-23T12:46:02.129Z,10.63
2019-01-23T12:48:38.824Z,12.55
2019-01-23T12:51:15.046Z,9.83
2019-01-23T12:53:51.244Z,12.98
2019-01-23T12:56:28.349Z,11.10
2019-01-23T12:59:05.796Z,8.90
2019-01-23T13:01:42.466Z,9.38
2019-01-23T13:04:19.610Z,8.63
2019-01-23T13:06:55.509Z,9.33
2019-01-23T13:09:31.652Z,9.48
2019-01-23T13:12:07.957Z,11.22
2019-01-23T13:14:45.104Z,9.98
2019-01-23T13:17:20.778Z,8.20
2019-01-23T13:19:57.304Z,9.80
2019-01-23T13:22:33.767Z,8.38
2019-01-23T13:25:13.128Z,10.38
2019-01-23T13:27:49.840Z,9.83
2019-01-23T13:30:27.113Z,9.03
2019-01-23T13:33:03.100Z,10.58
2019-01-23T13:35:40.453Z,7.30
2019-01-23T13:38:18.825Z,7.60
2019-01-23T13:40:54.864Z,10.47
2019-01-23T13:43:31.022Z,8.60
2019-01-23T13:46:06.922Z,7.08
2019-01-23T13:48:43.093Z,7.50
2019-01-23T13:51:18.921Z,8.43
2019-01-23T13:53:56.155Z,8.73
2019-01-23T13:56:32.365Z,7.35
2019-01-23T13:59:09.275Z,10.38
2019-01-23T14:01:45.315Z,9.53
2019-01-23T14:04:21.204Z,7.43
2019-01-23T14:06:57.145Z,8.03
2019-01-23T14:09:33.410Z,8.53
2019-01-23T14:12:09.767Z,7.37
2019-01-23T14:14:46.212Z,9.78
2019-01-23T14:17:23.044Z,9.35
2019-01-23T14:19:59.505Z,8.68
2019-01-23T14:22:35.898Z,9.70
2019-01-23T14:25:13.442Z,7.10
2019-01-23T14:27:50.556Z,7.90
2019-01-23T14:30:34.816Z,11.73
2019-01-23T14:33:11.217Z,9.33
2019-01-23T14:35:48.221Z,9.38
2019-01-23T14:38:24.766Z,9.35
2019-01-23T14:41:00.930Z,8.38
2019-01-23T14:43:37.273Z,8.05
2019-01-23T14:46:13.371Z,10.10
2019-01-23T14:48:50.353Z,9.08
2019-01-23T14:51:26.174Z,9.35
2019-01-23T14:54:04.449Z,8.38
2019-01-23T14:56:40.480Z,8.58
2019-01-23T14:59:16.402Z,10.78
2019-01-23T15:01:52.552Z,11.68
2019-01-23T15:04:28.781Z,10.30
2019-01-23T15:07:04.472Z,18.10
2019-01-23T15:09:40.906Z,8.75
2019-01-23T15:12:16.600Z,11.50
2019-01-23T15:14:54.216Z,10.15
2019-01-23T15:17:31.339Z,12.50
2019-01-23T15:20:12.285Z,10.88
2019-01-23T15:22:48.857Z,14.90
2019-01-23T15:25:25.240Z,13.62
2019-01-23T15:28:01.453Z,10.60
2019-01-23T15:30:55.632Z,11.23
2019-01-23T15:33:32.459Z,13.62
2019-01-23T15:36:08.184Z,11.38
2019-01-23T15:38:44.823Z,14.63
2019-01-23T15:41:20.976Z,14.03
2019-01-23T15:43:57.496Z,10.93
2019-01-23T15:46:34.072Z,9.93
2019-01-23T15:49:10.313Z,11.88
2019-01-23T15:51:46.304Z,8.93
2019-01-23T15:54:22.571Z,10.03
2019-01-23T15:56:58.549Z,12.03
2019-01-23T15:59:34.706Z,9.83
2019-01-23T16:02:11.492Z,13.03
2019-01-23T16:04:47.219Z,12.20
2019-01-23T16:07:23.401Z,12.55
2019-01-23T16:10:00.387Z,10.63
2019-01-23T16:12:36.833Z,13.00
2019-01-23T16:15:13.227Z,12.98
2019-01-23T16:17:49.672Z,10.95
2019-01-23T16:20:26.205Z,14.30
2019-01-23T16:23:02.006Z,12.47
2019-01-23T16:25:37.709Z,14.10
2019-01-23T16:28:13.614Z,11.83
2019-01-23T16:30:49.925Z,11.07
2019-01-23T16:33:26.468Z,13.43
2019-01-23T16:36:02.932Z,12.70
2019-01-23T16:38:39.676Z,10.78
2019-01-23T16:41:15.957Z,12.03
2019-01-23T16:43:52.137Z,7.95
2019-01-23T16:46:28.425Z,8.63
2019-01-23T16:49:04.538Z,8.65
2019-01-23T16:51:41.130Z,9.53
2019-01-23T16:54:17.660Z,8.33
2019-01-23T16:56:54.407Z,10.23
2019-01-23T16:59:30.476Z,8.65
2019-01-23T17:02:06.508Z,10.83
2019-01-23T17:04:42.768Z,10.15
2019-01-23T17:07:19.037Z,10.53
2019-01-23T17:09:55.403Z,17.95
2019-01-23T17:12:31.932Z,16.25
2019-01-23T17:15:09.835Z,15.07
2019-01-23T17:17:46.292Z,13.03
2019-01-23T17:20:25.000Z,13.98
2019-01-23T17:23:01.280Z,13.60
2019-01-23T17:25:37.936Z,12.13
2019-01-23T17:28:15.419Z,14.50
2019-01-23T17:30:51.761Z,12.73
2019-01-23T17:33:27.781Z,14.20
2019-01-23T17:36:04.372Z,11.08
2019-01-23T17:38:41.229Z,9.87
2019-01-23T17:41:17.984Z,15.03
2019-01-23T17:43:54.932Z,11.00
2019-01-23T17:46:31.048Z,12.00
2019-01-23T17:49:07.727Z,10.57
2019-01-23T17:51:44.483Z,10.90
2019-01-23T17:54:21.802Z,13.43
2019-01-23T17:56:57.957Z,10.70
2019-01-23T17:59:34.678Z,10.68
2019-01-23T18:02:10.793Z,11.03
2019-01-23T18:04:47.658Z,8.85
2019-01-23T18:07:24.014Z,10.93
2019-01-23T18:10:01.178Z,9.13
2019-01-23T18:12:37.204Z,10.13
2019-01-23T18:15:16.477Z,10.58
2019-01-23T18:17:52.804Z,14.00
2019-01-23T18:20:29.883Z,12.10
2019-01-23T18:23:06.595Z,15.68
2019-01-23T18:25:43.354Z,10.68
2019-01-23T18:28:19.329Z,13.35
2019-01-23T18:31:33.348Z,19.27
2019-01-23T18:34:51.990Z,15.67
2019-01-23T18:37:56.900Z,15.30
2019-01-23T18:41:08.764Z,13.28
2019-01-23T18:44:03.132Z,15.43
2019-01-23T18:47:21.609Z,13.13
2019-01-23T18:50:50.813Z,12.80
2019-01-23T18:53:26.924Z,14.80
2019-01-23T18:56:03.001Z,13.63
2019-01-23T18:58:39.958Z,13.37
2019-01-23T19:01:16.279Z,11.18
2019-01-23T19:03:52.030Z,10.90
2019-01-23T19:06:27.880Z,12.25
2019-01-23T19:09:07.966Z,22.97
2019-01-23T19:11:44.576Z,14.68
2019-01-23T19:14:24.507Z,11.73
2019-01-23T19:16:59.557Z,13.83
2019-01-23T19:19:36.048Z,17.73
2019-01-23T19:22:12.350Z,12.53
2019-01-23T19:24:48.476Z,11.90
2019-01-23T19:27:25.637Z,11.20
2019-01-23T19:30:08.859Z,12.98
2019-01-23T19:32:40.485Z,10.00
2019-01-23T19:35:16.877Z,16.73
2019-01-23T19:37:52.965Z,13.32
2019-01-23T19:40:28.893Z,13.60
2019-01-23T19:43:05.779Z,13.18
2019-01-23T19:45:42.249Z,11.90
2019-01-23T19:48:18.523Z,14.18
2019-01-23T19:50:55.928Z,12.75
2019-01-23T19:53:33.360Z,10.43
2019-01-23T19:56:09.717Z,10.13
2019-01-23T19:58:46.116Z,11.05
2019-01-23T20:01:22.434Z,8.80
2019-01-23T20:03:59.975Z,10.08
2019-01-23T20:06:36.577Z,10.78
2019-01-23T20:09:13.253Z,11.05
2019-01-23T20:11:49.553Z,11.78
2019-01-23T20:14:25.718Z,11.07
2019-01-23T20:17:02.279Z,13.50
2019-01-23T20:19:39.627Z,13.83
2019-01-23T20:22:16.304Z,11.43
2019-01-23T20:24:52.125Z,10.55
2019-01-23T20:27:28.036Z,11.97
2019-01-23T20:30:05.824Z,10.53
2019-01-23T20:32:42.563Z,10.75
2019-01-23T20:35:19.726Z,9.90
2019-01-23T20:37:56.247Z,10.97
2019-01-23T20:40:32.604Z,13.83
2019-01-23T20:43:08.877Z,9.87
2019-01-23T20:45:45.421Z,11.05
2019-01-23T20:48:21.461Z,11.28
2019-01-23T20:50:57.615Z,9.53
2019-01-23T20:53:34.440Z,10.85
2019-01-23T20:56:10.776Z,10.75
2019-01-23T20:58:47.104Z,9.47
2019-01-23T21:01:23.572Z,9.63
2019-01-23T21:03:59.781Z,10.80
2019-01-23T21:06:37.146Z,10.70
2019-01-23T21:09:13.208Z,9.28
2019-01-23T21:11:49.570Z,10.10
2019-01-23T21:14:25.973Z,10.60
2019-01-23T21:17:02.354Z,11.10
2019-01-23T21:19:38.779Z,9.10
2019-01-23T21:22:15.552Z,8.93
2019-01-23T21:24:51.770Z,8.83
2019-01-23T21:27:27.855Z,8.65
2019-01-23T21:30:05.921Z,7.75
2019-01-23T21:32:42.008Z,10.13
2019-01-23T21:35:18.476Z,10.45
2019-01-23T21:37:55.367Z,10.63
2019-01-23T21:40:32.622Z,11.57
2019-01-23T21:43:08.552Z,10.08
2019-01-23T21:45:44.952Z,11.30
2019-01-23T21:48:22.332Z,9.53
2019-01-23T21:50:58.212Z,9.87
2019-01-23T21:53:35.126Z,8.98
2019-01-23T21:56:11.539Z,10.37
2019-01-23T21:58:47.754Z,9.63
2019-01-23T22:01:23.729Z,9.40
2019-01-23T22:03:59.912Z,9.88
2019-01-23T22:06:36.226Z,10.32
2019-01-23T22:09:12.665Z,10.45
2019-01-23T22:11:48.481Z,8.43
2019-01-23T22:14:25.501Z,8.90
2019-01-23T22:17:01.572Z,8.75
2019-01-23T22:19:37.608Z,11.75
2019-01-23T22:22:13.708Z,10.20
2019-01-23T22:24:50.415Z,9.75
2019-01-23T22:27:26.385Z,8.75
2019-01-23T22:30:02.371Z,10.48
2019-01-23T22:32:38.609Z,10.10
2019-01-23T22:35:16.433Z,9.30
2019-01-23T22:37:53.124Z,6.70
2019-01-23T22:40:29.405Z,8.50
2019-01-23T22:43:05.721Z,8.25
2019-01-23T22:45:41.913Z,10.60
2019-01-23T22:48:18.028Z,8.53
2019-01-23T22:50:54.226Z,9.50
2019-01-23T22:53:30.373Z,8.15
2019-01-23T22:56:07.463Z,8.43
2019-01-23T22:58:45.206Z,8.20
2019-01-23T23:01:25.976Z,7.87
2019-01-23T23:04:03.345Z,9.95
2019-01-23T23:06:40.137Z,8.40
2019-01-23T23:09:16.587Z,7.90
2019-01-23T23:11:52.980Z,8.53
2019-01-23T23:14:29.612Z,9.70
2019-01-23T23:17:05.789Z,9.65
2019-01-23T23:19:41.611Z,8.78
2019-01-23T23:22:18.388Z,10.68
2019-01-23T23:24:54.933Z,9.48
2019-01-23T23:27:31.335Z,10.55
2019-01-23T23:30:09.795Z,9.25
2019-01-23T23:32:47.141Z,7.95
2019-01-23T23:35:23.281Z,8.08
2019-01-23T23:37:59.781Z,9.63
2019-01-23T23:40:36.008Z,9.67
2019-01-23T23:43:12.178Z,8.93
2019-01-23T23:45:48.936Z,9.28
2019-01-23T23:48:26.109Z,8.58
2019-01-23T23:51:02.453Z,8.57
2019-01-23T23:53:39.212Z,8.97
2019-01-23T23:56:15.642Z,9.07
2019-01-23T23:58:52.136Z,7.60
